Time;durP1;ratioP1;P1;durP2;ratioP2;P2;SDS_P1;SDS_P2;PMS_P1;PMS_P2;Temp;Humidity;BMP_temperature;BMP_pressure;BME280_temperature;BME280_humidity;BME280_pressure;Samples;Min_cycle;Max_cycle;Signal;HPM_P1;HPM_P2
2022/01/31 00:00:47;;;;;;;11.63;3.50;;;;;;;2.18;100.00;97994.45;2129481;84;20960;-83
2022/01/31 00:03:48;;;;;;;10.20;3.47;;;;;;;2.18;100.00;98032.38;2111413;84;21009;-84
2022/01/31 00:06:49;;;;;;;11.85;4.60;;;;;;;2.15;100.00;98018.47;2141026;82;21097;-84
2022/01/31 00:09:49;;;;;;;11.53;3.35;;;;;;;2.13;100.00;98001.83;2113052;84;21001;-83
2022/01/31 00:12:57;;;;;;;14.13;3.65;;;;;;;2.12;100.00;98032.49;2178294;81;21061;-83
2022/01/31 00:15:55;;;;;;;15.30;4.85;;;;;;;2.11;100.00;98024.89;2177535;81;21053;-83
2022/01/31 00:18:55;;;;;;;16.37;4.50;;;;;;;2.11;100.00;98005.52;2185668;80;20969;-83
2022/01/31 00:21:56;;;;;;;13.28;4.00;;;;;;;2.09;100.00;98020.33;2217321;80;21556;-83
2022/01/31 00:24:57;;;;;;;10.72;3.70;;;;;;;2.08;100.00;98024.68;2204521;80;20939;-81
2022/01/31 00:27:58;;;;;;;17.25;4.67;;;;;;;2.07;100.00;98038.55;2197635;81;21018;-81
2022/01/31 00:30:58;;;;;;;8.35;3.22;;;;;;;2.07;100.00;98023.53;2181084;80;20990;-82
2022/01/31 00:33:59;;;;;;;17.37;4.17;;;;;;;2.06;100.00;98034.34;2130560;84;21509;-81
2022/01/31 00:37:00;;;;;;;12.10;3.37;;;;;;;2.05;100.00;98036.59;2178184;81;21041;-81
2022/01/31 00:40:01;;;;;;;20.72;4.70;;;;;;;2.01;100.00;98024.91;2198789;80;20981;-81
2022/01/31 00:43:02;;;;;;;7.83;3.37;;;;;;;1.96;100.00;98039.55;2217279;80;20958;-82
2022/01/31 00:46:10;;;;;;;12.13;3.58;;;;;;;1.95;100.00;98022.43;2198166;80;21029;-82
2022/01/31 00:49:11;;;;;;;13.80;3.85;;;;;;;1.92;100.00;98038.22;2189760;80;20995;-82
2022/01/31 00:52:08;;;;;;;10.65;3.08;;;;;;;1.92;100.00;98052.86;2127900;84;21505;-82
2022/01/31 00:55:09;;;;;;;23.15;4.17;;;;;;;1.90;100.00;98053.02;2139281;82;21065;-81
2022/01/31 00:58:09;;;;;;;17.60;3.70;;;;;;;1.90;100.00;98055.59;2135080;82;21588;-82
2022/01/31 01:01:10;;;;;;;13.58;3.37;;;;;;;1.88;100.00;98066.55;2172890;80;21025;-82
2022/01/31 01:04:11;;;;;;;15.38;3.30;;;;;;;1.87;100.00;98048.62;2176704;80;20965;-82
2022/01/31 01:07:12;;;;;;;12.93;3.58;;;;;;;1.85;100.00;98049.24;2127078;82;21469;-82
2022/01/31 01:10:12;;;;;;;16.62;3.65;;;;;;;1.85;100.00;98057.80;2209677;80;20965;-82
2022/01/31 01:13:13;;;;;;;9.28;3.65;;;;;;;1.85;100.00;98061.67;2216218;80;20941;-82
2022/01/31 01:16:14;;;;;;;9.03;3.33;;;;;;;1.83;100.00;98062.74;2205117;80;21018;-82
2022/01/31 01:19:15;;;;;;;8.55;3.65;;;;;;;1.79;100.00;98064.80;2206301;80;21468;-83
2022/01/31 01:22:16;;;;;;;12.28;2.87;;;;;;;1.80;100.00;98059.16;2216328;80;21014;-83
2022/01/31 01:25:17;;;;;;;9.53;3.05;;;;;;;1.79;100.00;98061.41;2201050;80;21556;-81
2022/01/31 01:28:20;;;;;;;10.23;3.27;;;;;;;1.79;100.00;98061.41;2196141;80;21100;-83
2022/01/31 01:31:20;;;;;;;12.20;3.35;;;;;;;1.74;100.00;98069.59;2171180;82;21034;-82
2022/01/31 01:34:22;;;;;;;9.38;2.90;;;;;;;1.76;100.00;98060.41;2126738;83;21021;-82
2022/01/31 01:37:23;;;;;;;9.95;2.50;;;;;;;1.74;100.00;98076.04;2171219;81;20946;-82
2022/01/31 01:40:24;;;;;;;6.70;2.72;;;;;;;1.70;100.00;98066.45;2125800;83;21034;-82
2022/01/31 01:43:25;;;;;;;8.30;2.90;;;;;;;1.73;100.00;98081.31;2126769;83;21587;-82
2022/01/31 01:46:26;;;;;;;10.43;3.05;;;;;;;1.73;100.00;98090.35;2171195;82;21030;-82
2022/01/31 01:49:26;;;;;;;11.33;3.17;;;;;;;1.70;100.00;98077.25;2123824;83;21060;-82
2022/01/31 01:52:27;;;;;;;9.25;2.30;;;;;;;1.71;100.00;98088.73;2126574;84;20965;-82
2022/01/31 01:55:28;;;;;;;8.50;2.52;;;;;;;1.70;100.00;98069.03;2108342;83;21100;-82
2022/01/31 01:58:37;;;;;;;13.88;3.27;;;;;;;1.69;100.00;98088.53;2091658;84;20993;-82
2022/01/31 02:01:31;;;;;;;8.25;2.67;;;;;;;1.64;100.00;98080.37;2091150;85;21540;-83
2022/01/31 02:04:32;;;;;;;9.23;3.42;;;;;;;1.62;100.00;98070.20;2134324;83;21010;-83
2022/01/31 02:07:33;;;;;;;13.45;3.10;;;;;;;1.61;100.00;98061.31;2144479;81;21481;-82
2022/01/31 02:10:34;;;;;;;9.33;2.85;;;;;;;1.60;100.00;98051.47;2125821;84;20966;-83
2022/01/31 02:13:35;;;;;;;21.07;4.65;;;;;;;1.60;100.00;98037.75;2171144;81;21069;-83
2022/01/31 02:16:36;;;;;;;10.05;2.87;;;;;;;1.60;100.00;98037.75;2171165;81;21538;-83
2022/01/31 02:19:38;;;;;;;8.13;2.25;;;;;;;1.60;100.00;98027.43;2126963;82;21465;-83
2022/01/31 02:22:39;;;;;;;12.78;2.77;;;;;;;1.53;100.00;98022.48;2171035;81;21549;-82
2022/01/31 02:25:40;;;;;;;7.92;2.65;;;;;;;1.52;100.00;98033.76;2126453;83;21375;-83
2022/01/31 02:28:43;;;;;;;19.17;3.87;;;;;;;1.50;100.00;98030.03;2125691;83;21005;-82
2022/01/31 02:31:44;;;;;;;9.85;3.15;;;;;;;1.50;100.00;98022.77;2126653;83;21091;-82
2022/01/31 02:34:45;;;;;;;8.63;2.47;;;;;;;1.50;100.00;98011.97;2171136;81;21470;-82
2022/01/31 02:37:46;;;;;;;7.30;3.10;;;;;;;1.50;100.00;98019.71;2126626;84;21020;-82
2022/01/31 02:40:48;;;;;;;12.35;3.45;;;;;;;1.50;100.00;98027.93;2202170;80;21089;-82
2022/01/31 02:43:54;;;;;;;9.73;3.83;;;;;;;1.47;100.00;98025.64;2216005;80;21481;-82
2022/01/31 02:46:54;;;;;;;11.78;3.80;;;;;;;1.46;100.00;98009.80;2212905;80;21104;-82
2022/01/31 02:50:00;;;;;;;8.80;3.35;;;;;;;1.44;100.00;98004.78;2198244;80;21085;-82
2022/01/31 02:53:21;;;;;;;9.23;2.95;;;;;;;1.43;100.00;98009.60;2126249;84;21009;-83
2022/01/31 02:56:15;;;;;;;13.00;3.83;;;;;;;1.40;100.00;98016.34;2125753;83;21502;-82
2022/01/31 02:59:16;;;;;;;6.60;2.77;;;;;;;1.34;100.00;98014.30;2179917;80;21021;-82
2022/01/31 03:02:17;;;;;;;15.75;2.80;;;;;;;1.28;100.00;98002.80;2216331;80;21006;-81
2022/01/31 03:05:18;;;;;;;8.03;2.47;;;;;;;1.24;100.00;98009.16;2216416;80;21564;-82
2022/01/31 03:08:19;;;;;;;10.65;2.92;;;;;;;1.19;100.00;98002.33;2216160;80;20981;-82
2022/01/31 03:11:19;;;;;;;8.73;3.08;;;;;;;1.18;100.00;98003.25;2178881;80;21754;-82
2022/01/31 03:14:20;;;;;;;10.80;3.65;;;;;;;1.19;100.00;97999.75;2177785;81;21006;-82
2022/01/31 03:17:21;;;;;;;13.85;3.22;;;;;;;1.17;100.00;97975.03;2191305;81;20926;-82
2022/01/31 03:20:22;;;;;;;11.93;4.33;;;;;;;1.09;100.00;97989.41;2193060;80;21485;-82
2022/01/31 03:23:23;;;;;;;16.20;4.40;;;;;;;1.04;100.00;97988.22;2216188;80;20965;-82
2022/01/31 03:26:24;;;;;;;12.25;2.92;;;;;;;0.97;100.00;97970.38;2216101;80;21595;-82
2022/01/31 03:29:25;;;;;;;13.32;3.52;;;;;;;0.88;100.00;97973.30;2209436;80;21501;-82
2022/01/31 03:32:26;;;;;;;9.98;3.60;;;;;;;0.88;100.00;97973.30;2145914;83;20969;-82
2022/01/31 03:35:27;;;;;;;12.63;3.47;;;;;;;0.95;100.00;97974.38;2159428;82;21544;-82
2022/01/31 03:38:28;;;;;;;13.00;2.92;;;;;;;0.98;100.00;97963.78;2169847;82;21029;-82
2022/01/31 03:41:28;;;;;;;13.98;3.20;;;;;;;0.99;100.00;97964.60;2114928;83;21509;-81
2022/01/31 03:44:34;;;;;;;10.23;2.95;;;;;;;0.99;100.00;97963.31;2133488;83;20973;-82
2022/01/31 03:47:32;;;;;;;11.15;3.00;;;;;;;1.02;100.00;97966.92;2132112;83;21008;-82
2022/01/31 03:50:32;;;;;;;11.80;3.00;;;;;;;1.03;100.00;97964.20;2133296;83;21052;-82
2022/01/31 03:53:33;;;;;;;13.22;4.08;;;;;;;1.04;100.00;97946.97;2120118;80;21196;-83
2022/01/31 03:56:35;;;;;;;11.12;3.42;;;;;;;1.02;100.00;97956.61;2205258;81;21025;-84
2022/01/31 03:59:36;;;;;;;15.25;3.37;;;;;;;1.03;100.00;97944.87;2156275;83;21008;-83
2022/01/31 04:02:37;;;;;;;7.33;2.65;;;;;;;1.02;100.00;97948.40;2118624;84;21121;-83
2022/01/31 04:05:38;;;;;;;9.70;2.87;;;;;;;1.00;100.00;97938.67;2185302;81;21047;-83
2022/01/31 04:08:39;;;;;;;10.25;3.80;;;;;;;1.01;100.00;97937.75;2199178;81;21021;-84
2022/01/31 04:11:41;;;;;;;8.70;3.30;;;;;;;1.03;100.00;97935.03;2206889;81;20998;-83
2022/01/31 04:14:42;;;;;;;8.30;2.70;;;;;;;1.03;100.00;97936.32;2207429;81;21025;-84
2022/01/31 04:17:43;;;;;;;13.98;4.03;;;;;;;1.04;100.00;97934.89;2194400;81;21026;-83
2022/01/31 04:20:44;;;;;;;8.50;3.17;;;;;;;1.07;100.00;97926.05;2190908;81;21005;-83
2022/01/31 04:23:46;;;;;;;10.00;2.58;;;;;;;1.07;100.00;97927.34;2191030;81;21533;-83
2022/01/31 04:26:56;;;;;;;14.15;4.17;;;;;;;1.09;100.00;97935.27;2190937;81;21485;-82
2022/01/31 04:29:50;;;;;;;12.93;4.35;;;;;;;1.12;100.00;97933.72;2190039;81;21021;-82
2022/01/31 04:32:51;;;;;;;8.73;3.33;;;;;;;1.08;100.00;97928.97;2191076;81;20967;-83
2022/01/31 04:35:52;;;;;;;16.20;3.85;;;;;;;1.08;100.00;97925.09;2190750;81;21018;-83
2022/01/31 04:38:53;;;;;;;13.60;3.33;;;;;;;1.09;100.00;97935.27;2190607;81;20974;-84
2022/01/31 04:41:54;;;;;;;11.28;3.77;;;;;;;1.04;100.00;97911.69;2205693;81;21551;-84
2022/01/31 04:44:58;;;;;;;15.30;3.72;;;;;;;1.02;100.00;97925.20;2206962;81;20989;-83
2022/01/31 04:47:57;;;;;;;10.08;3.20;;;;;;;1.02;100.00;97906.34;2206880;81;21057;-82
2022/01/31 04:50:58;;;;;;;11.18;3.62;;;;;;;1.00;100.00;97915.95;2207130;81;21077;-83
2022/01/31 04:53:59;;;;;;;13.08;4.05;;;;;;;1.03;100.00;97916.51;2200879;81;21049;-83
2022/01/31 04:57:00;;;;;;;14.38;3.05;;;;;;;1.01;100.00;97908.58;2195044;81;21009;-82
2022/01/31 05:00:00;;;;;;;10.40;2.72;;;;;;;1.01;100.00;97902.95;2195187;81;21464;-83
2022/01/31 05:03:02;;;;;;;11.55;3.35;;;;;;;0.99;100.00;97903.54;2194976;81;21021;-83
2022/01/31 05:06:03;;;;;;;8.05;3.12;;;;;;;0.97;100.00;97911.08;2202809;80;21469;-83
2022/01/31 05:09:03;;;;;;;15.75;3.50;;;;;;;0.95;100.00;97908.65;2211312;80;20966;-84
2022/01/31 05:12:04;;;;;;;12.60;3.30;;;;;;;0.95;100.00;97902.68;2211453;80;21472;-82
2022/01/31 05:15:05;;;;;;;10.23;3.05;;;;;;;0.97;100.00;97896.42;2210895;80;20961;-83
2022/01/31 05:18:06;;;;;;;7.00;2.70;;;;;;;0.95;100.00;97891.89;2205755;80;21070;-82
2022/01/31 05:21:08;;;;;;;8.48;3.35;;;;;;;0.95;100.00;97882.06;2206780;80;21017;-82
2022/01/31 05:24:10;;;;;;;13.72;3.90;;;;;;;0.96;100.00;97886.26;2211074;80;20989;-82
2022/01/31 05:27:11;;;;;;;15.38;4.62;;;;;;;0.95;100.00;97884.16;2210846;80;20997;-83
2022/01/31 05:30:12;;;;;;;8.80;4.25;;;;;;;0.95;100.00;97875.61;2211171;80;21512;-83
2022/01/31 05:33:13;;;;;;;15.63;3.90;;;;;;;0.94;100.00;97870.94;2206125;80;21015;-83
2022/01/31 05:36:13;;;;;;;9.53;3.85;;;;;;;0.94;100.00;97864.49;2194672;81;21014;-84
2022/01/31 05:39:14;;;;;;;14.65;3.62;;;;;;;0.93;100.00;97860.77;2194590;81;20939;-83
2022/01/31 05:42:15;;;;;;;16.05;4.42;;;;;;;0.92;100.00;97860.44;2194439;81;20962;-83
2022/01/31 05:45:16;;;;;;;15.32;4.17;;;;;;;0.90;100.00;97843.80;2194295;81;21069;-82
2022/01/31 05:48:20;;;;;;;15.93;3.15;;;;;;;0.90;100.00;97853.30;2198246;80;21457;-84
2022/01/31 05:51:19;;;;;;;13.15;4.55;;;;;;;0.88;100.00;97849.58;2204097;81;21470;-83
2022/01/31 05:54:20;;;;;;;18.50;4.33;;;;;;;0.85;100.00;97838.27;2204449;81;21072;-83
2022/01/31 05:57:21;;;;;;;15.08;4.78;;;;;;;0.83;100.00;97837.13;2205233;81;20958;-83
2022/01/31 06:00:22;;;;;;;18.27;4.78;;;;;;;0.82;100.00;97838.08;2204865;81;21076;-82
2022/01/31 06:03:23;;;;;;;14.63;4.00;;;;;;;0.80;100.00;97832.70;2207966;80;20977;-84
2022/01/31 06:06:24;;;;;;;15.32;4.05;;;;;;;0.79;100.00;97829.31;2206825;80;21679;-82
2022/01/31 06:09:27;;;;;;;11.65;3.85;;;;;;;0.79;100.00;97819.48;2211192;80;21491;-83
2022/01/31 06:12:27;;;;;;;14.95;4.45;;;;;;;0.79;100.00;97825.45;2210752;80;21013;-82
2022/01/31 06:15:31;;;;;;;19.23;6.50;;;;;;;0.78;100.00;97823.83;2211367;80;21096;-85
2022/01/31 06:18:35;;;;;;;18.35;4.83;;;;;;;0.74;100.00;97823.78;2211163;80;21479;-82
2022/01/31 06:21:34;;;;;;;14.73;4.12;;;;;;;0.71;100.00;97818.89;2210764;80;21001;-81
2022/01/31 06:24:35;;;;;;;16.65;4.60;;;;;;;0.71;100.00;97819.36;2211397;80;20988;-82
2022/01/31 06:27:36;;;;;;;15.28;5.30;;;;;;;0.68;100.00;97828.19;2209668;80;21124;-83
2022/01/31 06:30:38;;;;;;;18.40;4.53;;;;;;;0.68;100.00;97829.95;2201047;81;21691;-84
2022/01/31 06:33:38;;;;;;;16.90;4.78;;;;;;;0.68;100.00;97841.08;2205703;80;20958;-87
2022/01/31 06:36:39;;;;;;;15.60;4.87;;;;;;;0.65;100.00;97834.11;2205962;80;20932;-83
2022/01/31 06:39:40;;;;;;;18.70;5.05;;;;;;;0.67;100.00;97834.30;2197256;80;21006;-83
2022/01/31 06:42:40;;;;;;;15.38;4.85;;;;;;;0.67;100.00;97820.13;2188612;81;21457;-83
2022/01/31 06:45:41;;;;;;;17.62;6.25;;;;;;;0.67;100.00;97827.05;2189156;81;21390;-82
2022/01/31 06:48:42;;;;;;;24.30;4.37;;;;;;;0.68;100.00;97825.61;2189066;81;21024;-82
2022/01/31 06:51:42;;;;;;;13.20;4.30;;;;;;;0.68;100.00;97826.91;2189159;81;21065;-84
2022/01/31 06:54:44;;;;;;;15.83;3.90;;;;;;;0.65;100.00;97828.95;2188770;81;21542;-84
2022/01/31 06:57:45;;;;;;;21.87;5.12;;;;;;;0.62;100.00;97817.14;2168939;82;21033;-83
2022/01/31 07:00:47;;;;;;;14.33;3.85;;;;;;;0.68;100.00;97816.59;2188556;81;21012;-84
2022/01/31 07:03:47;;;;;;;23.12;5.35;;;;;;;0.71;100.00;97818.89;2158065;82;21547;-83
2022/01/31 07:06:48;;;;;;;16.42;5.22;;;;;;;0.74;100.00;97807.03;2143171;82;21141;-82
2022/01/31 07:09:50;;;;;;;12.07;4.62;;;;;;;0.78;100.00;97803.20;2147628;83;21009;-83
2022/01/31 07:12:53;;;;;;;18.77;5.08;;;;;;;0.79;100.00;97806.12;2148420;82;21074;-83
2022/01/31 07:15:54;;;;;;;14.23;4.20;;;;;;;0.83;100.00;97810.53;2148255;82;21030;-83
2022/01/31 07:19:02;;;;;;;9.78;4.22;;;;;;;0.87;100.00;97799.45;2148371;82;21486;-82
2022/01/31 07:21:57;;;;;;;17.87;4.33;;;;;;;0.89;100.00;97800.13;2147442;82;21034;-84
2022/01/31 07:25:05;;;;;;;21.00;4.80;;;;;;;0.94;100.00;97801.34;2148239;83;21521;-82
2022/01/31 07:28:03;;;;;;;15.43;5.10;;;;;;;0.98;100.00;97793.64;2148034;82;21414;-83
2022/01/31 07:31:04;;;;;;;15.30;4.65;;;;;;;1.02;100.00;97798.87;2142626;82;21073;-84
2022/01/31 07:34:05;;;;;;;17.27;5.37;;;;;;;1.07;100.00;97798.43;2137132;83;21038;-86
2022/01/31 07:37:06;;;;;;;15.10;4.60;;;;;;;1.12;100.00;97797.06;2140807;83;21003;-80
2022/01/31 07:40:06;;;;;;;17.23;4.72;;;;;;;1.20;100.00;97782.17;2140799;83;21029;-80
2022/01/31 07:43:07;;;;;;;20.05;5.55;;;;;;;1.20;100.00;97782.17;2117521;84;20977;-83
2022/01/31 07:46:08;;;;;;;15.80;4.37;;;;;;;1.25;100.00;97779.14;2117503;84;21097;-82
2022/01/31 07:49:09;;;;;;;20.32;4.97;;;;;;;1.29;100.00;97768.42;2117319;84;21042;-84
2022/01/31 07:52:10;;;;;;;13.78;4.17;;;;;;;1.32;100.00;97782.30;2118760;82;20986;-81
2022/01/31 07:55:12;;;;;;;13.70;4.05;;;;;;;1.36;100.00;97761.70;2165590;81;21595;-81
2022/01/31 07:58:12;;;;;;;17.77;5.05;;;;;;;1.37;100.00;97762.52;2118078;84;21463;-83
2022/01/31 08:01:13;;;;;;;18.60;5.05;;;;;;;1.38;100.00;97749.97;2182244;81;21280;-82
2022/01/31 08:04:14;;;;;;;18.73;5.25;;;;;;;1.41;100.00;97746.61;2179893;81;21581;-83
2022/01/31 08:07:16;;;;;;;12.93;4.50;;;;;;;1.45;100.00;97739.87;2205085;81;20996;-82
2022/01/31 08:10:17;;;;;;;9.90;3.90;;;;;;;1.49;100.00;97736.86;2205310;81;20980;-83
2022/01/31 08:13:17;;;;;;;15.30;5.37;;;;;;;1.52;100.00;97735.75;2196746;81;21008;-83
2022/01/31 08:16:18;;;;;;;14.73;3.98;;;;;;;1.59;100.00;97726.47;2194298;80;20978;-84
2022/01/31 08:19:19;;;;;;;17.40;4.90;;;;;;;1.63;100.00;97723.44;2196037;81;21025;-81
2022/01/31 08:22:19;;;;;;;19.30;5.45;;;;;;;1.71;100.00;97725.29;2191796;81;21042;-84
2022/01/31 08:25:20;;;;;;;16.10;4.50;;;;;;;1.78;100.00;97719.06;2182366;81;21100;-83
2022/01/31 08:28:31;;;;;;;21.73;5.08;;;;;;;1.83;100.00;97714.25;2203855;81;20986;-82
2022/01/31 08:31:28;;;;;;;21.57;5.67;;;;;;;1.92;100.00;97708.20;2200828;81;21009;-78
2022/01/31 08:37:46;;;;;;;20.32;5.22;;;;;;;2.11;100.00;97700.78;2191742;81;21576;-80
2022/01/31 08:40:46;;;;;;;12.93;5.83;;;;;;;2.15;100.00;97702.89;2184473;81;20994;-80
2022/01/31 08:43:47;;;;;;;16.50;5.37;;;;;;;2.14;100.00;97687.55;2171636;81;20935;-80
2022/01/31 08:46:48;;;;;;;23.40;7.00;;;;;;;2.16;100.00;97692.08;2197910;81;21053;-79
2022/01/31 08:49:49;;;;;;;18.75;5.83;;;;;;;2.20;100.00;97689.06;2197683;81;20970;-79
2022/01/31 08:52:50;;;;;;;20.57;5.08;;;;;;;2.28;100.00;97685.70;2199475;81;20959;-79
2022/01/31 08:55:51;;;;;;;20.80;5.90;;;;;;;2.35;100.00;97689.78;2199652;81;21086;-79
2022/01/31 08:58:52;;;;;;;17.92;5.42;;;;;;;2.40;100.00;97684.50;2207039;81;21564;-79
2022/01/31 09:02:02;;;;;;;24.32;6.67;;;;;;;2.46;100.00;97689.52;2207018;81;21069;-79
2022/01/31 09:04:55;;;;;;;25.82;7.60;;;;;;;2.51;100.00;97682.94;2202644;81;20978;-80
2022/01/31 09:07:56;;;;;;;18.42;6.42;;;;;;;2.56;100.00;97675.55;2207059;81;21144;-78
2022/01/31 09:10:57;;;;;;;23.95;6.35;;;;;;;2.60;100.00;97671.35;2206950;81;20994;-80
2022/01/31 09:13:58;;;;;;;22.30;6.17;;;;;;;2.66;100.00;97665.58;2207140;81;21001;-80
2022/01/31 09:16:59;;;;;;;18.35;7.25;;;;;;;2.68;100.00;97657.98;2206982;81;20927;-79
2022/01/31 09:19:59;;;;;;;20.27;6.45;;;;;;;2.72;100.00;97655.89;2206969;81;21045;-80
2022/01/31 09:23:02;;;;;;;23.12;7.70;;;;;;;2.78;100.00;97657.38;2207147;81;21020;-79
2022/01/31 09:26:03;;;;;;;20.50;6.55;;;;;;;2.87;100.00;97657.41;2207017;81;21084;-79
2022/01/31 09:29:03;;;;;;;23.50;6.67;;;;;;;2.97;100.00;97645.16;2206841;81;20989;-81
2022/01/31 09:32:04;;;;;;;24.37;7.03;;;;;;;3.00;100.00;97650.81;2207000;81;21057;-81
2022/01/31 09:35:05;;;;;;;23.35;7.58;;;;;;;2.96;100.00;97650.00;2207056;81;21033;-79
2022/01/31 09:38:08;;;;;;;24.20;7.70;;;;;;;2.95;100.00;97641.92;2207120;81;21551;-87
2022/01/31 09:41:12;;;;;;;26.45;6.95;;;;;;;2.98;100.00;97643.70;2207116;81;20990;-82
2022/01/31 09:44:22;;;;;;;19.12;5.50;;;;;;;2.99;100.00;97634.97;2206764;81;21001;-81
2022/01/31 09:47:21;;;;;;;14.70;5.53;;;;;;;3.01;100.00;97634.80;2205939;81;21076;-84
2022/01/31 09:50:20;;;;;;;20.20;7.42;;;;;;;3.09;100.00;97617.53;2206675;81;21564;-83
2022/01/31 09:53:21;;;;;;;18.37;6.50;;;;;;;3.12;100.00;97613.36;2207169;81;20951;-80
2022/01/31 09:56:21;;;;;;;19.62;5.80;;;;;;;3.22;100.00;97615.80;2210481;80;21128;-81
2022/01/31 09:59:22;;;;;;;19.62;5.70;;;;;;;3.33;100.00;97611.59;2211494;80;21437;-81
2022/01/31 10:02:23;;;;;;;19.62;5.92;;;;;;;3.41;100.00;97611.61;2211197;80;21013;-80
2022/01/31 10:05:24;;;;;;;19.55;5.53;;;;;;;3.46;100.00;97599.95;2211051;80;21116;-81
2022/01/31 10:08:25;;;;;;;19.23;5.87;;;;;;;3.38;100.00;97583.93;2211110;80;20966;-78
2022/01/31 10:11:37;;;;;;;21.40;6.25;;;;;;;3.44;100.00;97584.59;2210952;80;21017;-80
2022/01/31 10:17:50;;;;;;;16.17;5.72;;;;;;;3.56;100.00;97581.18;2210896;80;21056;-80
2022/01/31 10:20:54;;;;;;;18.98;5.17;;;;;;;3.58;100.00;97571.01;2210737;80;21782;-84
2022/01/31 10:23:54;;;;;;;26.57;5.62;;;;;;;3.61;100.00;97578.44;2211064;80;21036;-80
2022/01/31 10:26:58;;;;;;;37.38;12.88;;;;;;;3.61;100.00;97577.14;2210768;80;20965;-82
2022/01/31 10:30:00;;;;;;;17.70;5.58;;;;;;;3.63;100.00;97572.61;2210631;80;21349;-83
2022/01/31 10:33:03;;;;;;;22.98;6.00;;;;;;;3.62;100.00;97563.23;2210755;80;21101;-82
2022/01/31 10:36:03;;;;;;;25.45;7.03;;;;;;;3.69;100.00;97565.48;2210682;80;21026;-83
2022/01/31 10:39:05;;;;;;;24.87;6.00;;;;;;;3.78;100.00;97561.11;2211040;80;21017;-83
2022/01/31 10:45:48;;;;;;;15.10;4.17;;;;;;;3.90;100.00;97568.84;2210503;80;21533;-82
2022/01/31 10:52:04;;;;;;;29.32;7.35;;;;;;;3.91;100.00;97562.69;2211038;80;21434;-80
2022/01/31 10:55:04;;;;;;;18.65;5.70;;;;;;;3.85;100.00;97563.86;2209253;80;21037;-81
2022/01/31 10:58:04;;;;;;;22.55;4.83;;;;;;;3.82;100.00;97565.46;2206950;81;21520;-79
2022/01/31 11:01:05;;;;;;;19.40;6.53;;;;;;;3.78;100.00;97559.81;2207180;81;20966;-82
2022/01/31 11:04:06;;;;;;;25.55;5.92;;;;;;;3.75;100.00;97561.91;2208812;81;21040;-87
2022/01/31 11:07:08;;;;;;;17.70;4.87;;;;;;;3.70;100.00;97565.00;2208140;81;21040;-86
2022/01/31 11:10:09;;;;;;;25.48;5.30;;;;;;;3.65;100.00;97561.59;2209033;81;20997;-84
2022/01/31 11:13:10;;;;;;;21.37;5.47;;;;;;;3.62;100.00;97555.95;2209556;81;21150;-81
2022/01/31 11:16:11;;;;;;;18.77;4.50;;;;;;;3.64;100.00;97551.41;2208241;81;21069;-87
2022/01/31 11:19:12;;;;;;;19.48;5.83;;;;;;;3.68;100.00;97555.30;2208608;81;21041;-86
2022/01/31 11:22:13;;;;;;;15.98;5.30;;;;;;;3.70;100.00;97546.39;2208013;81;21092;-86
2022/01/31 11:25:14;;;;;;;18.02;5.45;;;;;;;3.74;100.00;97540.88;2207906;81;21538;-83
2022/01/31 11:28:14;;;;;;;18.65;5.42;;;;;;;3.70;100.00;97538.63;2207131;81;20989;-77
2022/01/31 11:31:15;;;;;;;20.68;5.83;;;;;;;3.68;100.00;97538.48;2207201;81;21015;-84
2022/01/31 11:34:16;;;;;;;21.48;5.97;;;;;;;3.63;100.00;97532.48;2207019;81;21044;-80
2022/01/31 11:37:17;;;;;;;20.17;4.72;;;;;;;3.63;100.00;97529.89;2207110;81;21025;-81
2022/01/31 11:40:18;;;;;;;14.25;4.97;;;;;;;3.58;100.00;97528.78;2207253;81;21009;-81
2022/01/31 11:43:19;;;;;;;20.62;4.87;;;;;;;3.52;100.00;97531.53;2207273;81;20966;-82
2022/01/31 11:46:19;;;;;;;17.87;6.00;;;;;;;3.50;100.00;97535.27;2206996;81;21012;-81
2022/01/31 11:49:20;;;;;;;18.60;5.33;;;;;;;3.39;100.00;97537.70;2206997;81;21029;-80
2022/01/31 11:52:21;;;;;;;14.43;4.50;;;;;;;3.30;100.00;97534.31;2206759;81;20965;-83
2022/01/31 11:55:22;;;;;;;19.10;5.28;;;;;;;3.22;100.00;97537.38;2208012;80;21049;-81
2022/01/31 11:58:23;;;;;;;16.87;4.83;;;;;;;3.17;100.00;97531.87;2210584;80;20977;-81
2022/01/31 12:01:24;;;;;;;20.90;5.90;;;;;;;3.16;100.00;97534.13;2211032;80;21070;-81
2022/01/31 12:04:25;;;;;;;23.50;6.17;;;;;;;3.13;100.00;97524.92;2210576;80;21498;-81
2022/01/31 12:07:26;;;;;;;41.88;12.28;;;;;;;3.10;100.00;97516.98;2210573;80;21021;-81
2022/01/31 12:10:31;;;;;;;61.00;23.40;;;;;;;3.10;100.00;97519.56;2210862;80;21021;-82
2022/01/31 12:13:32;;;;;;;32.75;12.70;;;;;;;3.10;100.00;97513.59;2211753;80;21002;-83
2022/01/31 12:22:40;;;;;;;37.33;9.75;;;;;;;3.05;100.00;97501.64;2211709;80;21040;-82
2022/01/31 12:25:42;;;;;;;36.17;8.58;;;;;;;3.04;100.00;97503.91;2135643;83;21040;-83
2022/01/31 12:28:48;;;;;;;33.15;8.78;;;;;;;3.05;100.00;97501.16;2134528;83;21028;-82
2022/01/31 12:31:47;;;;;;;29.95;8.08;;;;;;;3.06;100.00;97505.84;2133986;83;21056;-82
2022/01/31 12:34:47;;;;;;;40.63;13.20;;;;;;;3.02;100.00;97504.56;2134516;83;21060;-81
2022/01/31 12:37:48;;;;;;;34.95;15.10;;;;;;;3.01;100.00;97502.91;2134622;83;21064;-81
2022/01/31 12:40:57;;;;;;;29.50;8.00;;;;;;;3.04;100.00;97493.56;2134498;83;20989;-81
2022/01/31 12:43:56;;;;;;;32.53;9.23;;;;;;;3.07;100.00;97496.62;2133195;83;21051;-82
2022/01/31 12:46:54;;;;;;;26.50;7.92;;;;;;;3.09;100.00;97492.58;2135174;83;21077;-82
2022/01/31 12:49:56;;;;;;;27.82;7.58;;;;;;;3.06;100.00;97487.25;2136561;83;21033;-80
2022/01/31 12:52:57;;;;;;;22.27;6.55;;;;;;;2.98;100.00;97487.73;2125863;83;21488;-81
2022/01/31 12:55:58;;;;;;;27.42;7.87;;;;;;;2.87;100.00;97496.62;2126352;83;21120;-79
2022/01/31 12:58:59;;;;;;;31.77;9.73;;;;;;;2.80;100.00;97492.56;2122609;84;21028;-79
2022/01/31 13:02:00;;;;;;;31.90;9.23;;;;;;;2.80;100.00;97486.10;2122523;84;21075;-82
2022/01/31 13:05:01;;;;;;;26.17;10.05;;;;;;;2.78;100.00;97488.05;2125319;84;21491;-81
2022/01/31 13:08:01;;;;;;;28.52;8.73;;;;;;;2.81;100.00;97484.33;2128434;84;21048;-80
2022/01/31 13:11:02;;;;;;;25.82;7.83;;;;;;;2.80;100.00;97482.23;2127901;84;21021;-82
2022/01/31 13:14:03;;;;;;;18.27;6.85;;;;;;;2.77;100.00;97483.84;2128140;84;21028;-83
2022/01/31 13:17:08;;;;;;;26.27;8.00;;;;;;;2.73;100.00;97483.02;2128718;84;21108;-83
2022/01/31 13:20:09;;;;;;;22.60;7.85;;;;;;;2.73;100.00;97478.66;2124170;84;21156;-84
2022/01/31 13:23:10;;;;;;;26.15;8.45;;;;;;;2.63;100.00;97472.83;2191949;81;21013;-84
2022/01/31 13:26:11;;;;;;;22.55;6.37;;;;;;;2.61;100.00;97475.26;2196516;81;21461;-81
2022/01/31 13:29:22;;;;;;;;;;;;;;;;;;;;;
2022/01/31 13:32:16;;;;;;;24.02;7.33;;;;;;;2.62;100.00;97482.04;2184349;81;21061;-80
2022/01/31 13:35:17;;;;;;;26.77;6.90;;;;;;;2.60;100.00;97471.06;2188805;81;20954;-80
2022/01/31 13:38:21;;;;;;;28.60;6.83;;;;;;;2.61;100.00;97472.19;2188960;81;21001;-79
2022/01/31 13:41:21;;;;;;;24.25;8.03;;;;;;;2.59;100.00;97472.03;2188669;80;21020;-78
2022/01/31 13:44:22;;;;;;;22.98;7.47;;;;;;;2.58;100.00;97473.00;2188721;81;21488;-80
2022/01/31 13:47:24;;;;;;;24.65;6.90;;;;;;;2.58;100.00;97471.22;2188660;81;21017;-81
2022/01/31 13:50:27;;;;;;;23.42;6.00;;;;;;;2.61;100.00;97466.21;2188573;81;21135;-79
2022/01/31 13:53:28;;;;;;;30.08;7.85;;;;;;;2.54;100.00;97464.25;2188749;81;21040;-79
2022/01/31 13:56:29;;;;;;;22.67;7.03;;;;;;;2.47;100.00;97465.05;2193180;80;21042;-80
2022/01/31 13:59:30;;;;;;;37.05;17.60;;;;;;;2.47;100.00;97467.17;2198023;81;21037;-79
2022/01/31 14:02:31;;;;;;;25.05;8.43;;;;;;;2.45;100.00;97469.56;2197850;81;20958;-79
2022/01/31 14:05:41;;;;;;;26.45;7.72;;;;;;;2.44;100.00;97464.89;2197430;81;21489;-78
2022/01/31 14:08:39;;;;;;;25.43;8.63;;;;;;;2.40;100.00;97468.77;2196311;81;21608;-78
2022/01/31 14:11:39;;;;;;;23.55;8.60;;;;;;;2.37;100.00;97470.35;2198013;81;21066;-79
2022/01/31 14:14:40;;;;;;;27.42;8.40;;;;;;;2.35;100.00;97466.32;2197947;81;21009;-79
2022/01/31 14:17:41;;;;;;;24.50;7.33;;;;;;;2.30;100.00;97462.13;2197666;81;21494;-80
2022/01/31 14:20:42;;;;;;;30.08;6.85;;;;;;;2.27;100.00;97457.58;2197858;81;21045;-80
2022/01/31 14:23:43;;;;;;;25.92;8.60;;;;;;;2.28;100.00;97457.09;2197771;81;21001;-82